createdAt,value
2022-11-01T00:02:01.192Z,145829.38
2022-11-01T00:04:28.223Z,145898.69
2022-11-01T00:06:55.457Z,145875.56
2022-11-01T00:09:22.765Z,145915.69
2022-11-01T00:11:49.978Z,145853.72
2022-11-01T00:14:19.075Z,145949.78
2022-11-01T00:16:46.408Z,145935.19
2022-11-01T00:19:13.644Z,145932.72
2022-11-01T00:21:40.666Z,145884.06
2022-11-01T00:24:07.801Z,145905.97
2022-11-01T00:26:35.483Z,145884.06
2022-11-01T00:29:02.714Z,145915.69
2022-11-01T00:31:29.850Z,145940.03
2022-11-01T00:33:56.887Z,145971.66
2022-11-01T00:36:23.972Z,145930.28
2022-11-01T00:38:51.788Z,145959.50
2022-11-01T00:41:20.727Z,145966.75
2022-11-01T00:43:48.200Z,145936.38
2022-11-01T00:46:15.987Z,145908.44
2022-11-01T00:48:43.165Z,145910.84
2022-11-01T00:51:10.860Z,145932.72
2022-11-01T00:53:37.863Z,146003.25
2022-11-01T00:56:06.649Z,146008.16
2022-11-01T00:58:34.311Z,146028.81
2022-11-01T01:01:01.424Z,145964.34
2022-11-01T01:03:28.668Z,146022.75
2022-11-01T01:05:55.898Z,146090.91
2022-11-01T01:08:24.170Z,146088.47
2022-11-01T01:10:51.532Z,146123.75
2022-11-01T01:13:19.167Z,146211.34
2022-11-01T01:15:46.787Z,146246.66
2022-11-01T01:18:14.498Z,146206.50
2022-11-01T01:20:41.578Z,146188.25
2022-11-01T01:23:08.916Z,146302.66
2022-11-01T01:25:40.134Z,146314.84
2022-11-01T01:28:07.638Z,146326.97
2022-11-01T01:30:34.671Z,146278.31
2022-11-01T01:33:01.787Z,146344.03
2022-11-01T01:35:28.851Z,146316.03
2022-11-01T01:37:56.032Z,146420.81
2022-11-01T01:40:23.063Z,146344.03
2022-11-01T01:42:50.080Z,146442.72
2022-11-01T01:45:29.139Z,146446.41
2022-11-01T01:48:03.599Z,146453.66
2022-11-01T01:50:42.120Z,146363.50
2022-11-01T01:53:22.023Z,146456.13
2022-11-01T01:55:56.476Z,146409.88
2022-11-01T01:58:28.933Z,146402.50
2022-11-01T02:00:56.480Z,146340.38
2022-11-01T02:03:28.724Z,146344.03
2022-11-01T02:06:02.676Z,146303.84
2022-11-01T02:08:30.123Z,146222.28
2022-11-01T02:11:01.125Z,146246.66
2022-11-01T02:13:29.807Z,146334.31
2022-11-01T02:16:22.698Z,146365.97
2022-11-01T02:18:49.638Z,146381.78
2022-11-01T02:21:31.373Z,146400.03
2022-11-01T02:24:35.993Z,146407.34
2022-11-01T02:27:15.393Z,146344.03
2022-11-01T02:30:04.587Z,146387.88
2022-11-01T02:32:44.116Z,146391.56
2022-11-01T02:35:24.175Z,146384.22
2022-11-01T02:38:05.621Z,146391.56
2022-11-01T02:41:07.437Z,146392.75
2022-11-01T02:43:46.772Z,146326.97
2022-11-01T02:46:34.496Z,146358.63
2022-11-01T02:49:02.789Z,146402.50
2022-11-01T02:51:30.430Z,146397.63
2022-11-01T02:54:01.183Z,146387.88
2022-11-01T02:56:28.921Z,146393.97
2022-11-01T02:58:56.377Z,146390.31
2022-11-01T03:01:26.474Z,146412.28
2022-11-01T03:03:57.490Z,146378.16
2022-11-01T03:06:33.008Z,146436.63
2022-11-01T03:09:04.658Z,146441.47
2022-11-01T03:11:52.825Z,146448.81
2022-11-01T03:14:22.868Z,146457.34
2022-11-01T03:17:00.526Z,146467.06
2022-11-01T03:19:45.744Z,146473.16
2022-11-01T03:22:18.771Z,146503.63
2022-11-01T03:24:52.166Z,146499.94
2022-11-01T03:27:36.309Z,146504.81
2022-11-01T03:30:14.064Z,146514.56
2022-11-01T03:32:45.783Z,146525.56
2022-11-01T03:35:18.364Z,146537.75
2022-11-01T03:37:46.713Z,146538.94
2022-11-01T03:40:17.188Z,146538.94
2022-11-01T03:42:48.206Z,146446.41
2022-11-01T03:45:20.532Z,146375.69
2022-11-01T03:47:47.749Z,146538.94
2022-11-01T03:50:19.171Z,146556.00
2022-11-01T03:52:47.137Z,146577.91
2022-11-01T03:55:19.480Z,146527.97
2022-11-01T03:57:51.749Z,146557.22
2022-11-01T04:00:22.892Z,146618.13
2022-11-01T04:02:51.435Z,146579.16
2022-11-01T04:05:20.231Z,146631.53
2022-11-01T04:07:47.835Z,146636.41
2022-11-01T04:10:15.336Z,146655.88
2022-11-01T04:12:45.474Z,146627.88
2022-11-01T04:15:31.270Z,146631.53
2022-11-01T04:18:35.700Z,146638.84
2022-11-01T04:21:07.092Z,146623.00
2022-11-01T04:23:34.561Z,146654.69
2022-11-01T04:26:02.758Z,146631.53
2022-11-01T04:28:29.756Z,146708.31
2022-11-01T04:30:57.204Z,146736.38
2022-11-01T04:33:24.199Z,146747.34
2022-11-01T04:35:51.232Z,146736.38
2022-11-01T04:38:18.325Z,146716.91
2022-11-01T04:40:45.376Z,146791.22
2022-11-01T04:43:13.179Z,146777.81
2022-11-01T04:45:40.431Z,146804.66
2022-11-01T04:48:13.387Z,146819.25
2022-11-01T04:50:41.786Z,146738.84
2022-11-01T04:53:10.052Z,146807.06
2022-11-01T04:55:37.468Z,146694.91
2022-11-01T04:58:06.539Z,146746.13
2022-11-01T05:00:34.223Z,146741.25
2022-11-01T05:03:06.400Z,146699.78
2022-11-01T05:05:35.063Z,146700.97
2022-11-01T05:08:06.092Z,146566.97
2022-11-01T05:10:35.028Z,146677.81
2022-11-01T05:13:03.156Z,146665.66
2022-11-01T05:15:30.429Z,146660.75
2022-11-01T05:17:59.481Z,146668.09
2022-11-01T05:20:26.575Z,146638.84
2022-11-01T05:22:59.483Z,146647.41
2022-11-01T05:25:27.777Z,146668.09
2022-11-01T05:28:03.695Z,146634.00
2022-11-01T05:30:30.993Z,146672.97
2022-11-01T05:32:59.812Z,146643.72
2022-11-01T05:35:28.382Z,146670.53
2022-11-01T05:37:56.121Z,146685.16
2022-11-01T05:40:23.425Z,146666.88
2022-11-01T05:42:50.462Z,146672.97
2022-11-01T05:45:17.487Z,146665.66
2022-11-01T05:47:44.507Z,146696.09
2022-11-01T05:50:13.413Z,146702.22
2022-11-01T05:52:40.709Z,146632.72
2022-11-01T05:55:08.561Z,146707.09
2022-11-01T05:57:36.500Z,146694.91
2022-11-01T06:00:05.302Z,146710.78
2022-11-01T06:02:39.112Z,146624.19
2022-11-01T06:05:06.392Z,146724.19
2022-11-01T06:07:35.664Z,146704.66
2022-11-01T06:10:04.065Z,146674.16
2022-11-01T06:12:31.535Z,146721.75
2022-11-01T06:14:58.866Z,146724.19
2022-11-01T06:17:25.971Z,146694.91
2022-11-01T06:19:53.042Z,146624.19
2022-11-01T06:22:20.153Z,146709.50
2022-11-01T06:24:47.162Z,146726.63
2022-11-01T06:27:14.158Z,146729.06
2022-11-01T06:29:41.162Z,146724.19
2022-11-01T06:32:08.561Z,146730.31
2022-11-01T06:34:36.903Z,146736.38
2022-11-01T06:37:05.547Z,146651.00
2022-11-01T06:39:32.558Z,146707.09
2022-11-01T06:41:59.588Z,146724.19
2022-11-01T06:44:26.559Z,146736.38
2022-11-01T06:46:54.906Z,146722.97
2022-11-01T06:49:22.228Z,146733.94
2022-11-01T06:51:49.334Z,146726.63
2022-11-01T06:54:16.408Z,146720.56
2022-11-01T06:56:46.260Z,146722.97
2022-11-01T06:59:13.562Z,146769.28
2022-11-01T07:01:40.607Z,146792.44
2022-11-01T07:04:07.980Z,146792.44
2022-11-01T07:06:35.079Z,146781.50
2022-11-01T07:09:02.139Z,146802.19
2022-11-01T07:11:31.757Z,146814.41
2022-11-01T07:13:59.453Z,146814.41
2022-11-01T07:16:27.001Z,146818.06
2022-11-01T07:18:54.153Z,146854.63
2022-11-01T07:21:21.487Z,146875.34
2022-11-01T07:23:48.690Z,146870.47
2022-11-01T07:26:16.122Z,146880.22
2022-11-01T07:28:43.121Z,146897.28
2022-11-01T07:31:10.117Z,146924.13
2022-11-01T07:33:37.512Z,146921.72
2022-11-01T07:36:04.737Z,146855.84
2022-11-01T07:38:32.334Z,146853.44
2022-11-01T07:40:59.437Z,146872.91
2022-11-01T07:43:26.470Z,146907.03
2022-11-01T07:45:53.563Z,146896.09
2022-11-01T07:48:20.717Z,146852.16
2022-11-01T07:50:47.869Z,146852.16
2022-11-01T07:53:17.740Z,146860.72
2022-11-01T07:55:45.979Z,146866.84
2022-11-01T07:58:14.343Z,146843.63
2022-11-01T08:00:42.283Z,146852.16
2022-11-01T08:03:14.957Z,146849.75
2022-11-01T08:05:42.575Z,146838.75
2022-11-01T08:08:10.423Z,146848.56
2022-11-01T08:10:38.425Z,146860.72
2022-11-01T08:13:07.377Z,146790.03
2022-11-01T08:15:35.047Z,146853.44
2022-11-01T08:18:02.963Z,146858.31
2022-11-01T08:20:30.416Z,146808.31
2022-11-01T08:22:57.673Z,146881.47
2022-11-01T08:25:25.297Z,146870.47
2022-11-01T08:27:52.300Z,146916.78
2022-11-01T08:30:20.436Z,146938.75
2022-11-01T08:32:47.606Z,146994.94
2022-11-01T08:35:14.808Z,146964.38
2022-11-01T08:37:51.984Z,146970.47
2022-11-01T08:40:19.587Z,147018.09
2022-11-01T08:42:48.660Z,147046.16
2022-11-01T08:45:16.726Z,147082.75
2022-11-01T08:47:43.875Z,147098.59
2022-11-01T08:50:13.317Z,147020.50
2022-11-01T08:52:41.010Z,147063.19
2022-11-01T08:55:09.473Z,147094.91
2022-11-01T08:57:36.829Z,147085.16
2022-11-01T09:00:07.083Z,147073.00
2022-11-01T09:02:34.516Z,147065.66
2022-11-01T09:05:05.055Z,147127.91
2022-11-01T09:07:37.063Z,147177.88
2022-11-01T09:10:05.244Z,147245.03
2022-11-01T09:12:32.297Z,147207.19
2022-11-01T09:14:59.470Z,147248.75
2022-11-01T09:17:26.603Z,147216.97
2022-11-01T09:19:53.635Z,147170.59
2022-11-01T09:22:20.775Z,146994.94
2022-11-01T09:24:47.887Z,146980.22
2022-11-01T09:27:16.167Z,146892.41
2022-11-01T09:29:45.435Z,146814.41
2022-11-01T09:32:15.205Z,146893.63
2022-11-01T09:34:42.185Z,146853.44
2022-11-01T09:37:09.346Z,146811.97
2022-11-01T09:39:36.336Z,146814.41
2022-11-01T09:42:10.152Z,146769.28
2022-11-01T09:44:43.864Z,146854.63
2022-11-01T09:47:18.374Z,146887.53
2022-11-01T09:49:48.182Z,146976.59
2022-11-01T09:52:23.971Z,146987.59
2022-11-01T09:54:51.258Z,146943.63
2022-11-01T09:57:24.671Z,146924.13
2022-11-01T10:00:13.686Z,146960.72
2022-11-01T10:02:52.592Z,146999.81
2022-11-01T10:05:38.459Z,147064.44
2022-11-01T10:08:20.405Z,147085.16
2022-11-01T10:11:19.521Z,147068.06
2022-11-01T10:13:59.892Z,147055.91
2022-11-01T10:16:37.230Z,147107.13
2022-11-01T10:19:17.458Z,147133.97
2022-11-01T10:21:54.459Z,147102.25
2022-11-01T10:24:40.209Z,147060.78
2022-11-01T10:27:22.092Z,147133.97
2022-11-01T10:30:12.094Z,147151.06
2022-11-01T10:32:52.481Z,147180.34
2022-11-01T10:35:29.551Z,147144.94
2022-11-01T10:38:19.124Z,147131.53
2022-11-01T10:41:10.415Z,147173.00
2022-11-01T10:43:44.007Z,147157.16
2022-11-01T10:46:19.863Z,147098.59
2022-11-01T10:48:55.317Z,147168.13
2022-11-01T10:51:28.004Z,147157.16
2022-11-01T10:54:02.886Z,147165.72
2022-11-01T10:56:41.589Z,147185.22
2022-11-01T10:59:30.137Z,147209.63
2022-11-01T11:02:00.217Z,147133.97
2022-11-01T11:04:28.670Z,147241.34
2022-11-01T11:06:56.784Z,147248.75
2022-11-01T11:09:34.438Z,147220.63
2022-11-01T11:12:06.476Z,147224.28
2022-11-01T11:14:34.938Z,147202.31
2022-11-01T11:17:03.204Z,147252.41
2022-11-01T11:19:30.269Z,147246.28
2022-11-01T11:21:59.084Z,147246.28
2022-11-01T11:24:33.390Z,147236.47
2022-11-01T11:27:03.208Z,147314.63
2022-11-01T11:29:38.745Z,147304.88
2022-11-01T11:32:19.868Z,147292.69
2022-11-01T11:35:04.978Z,147304.88
2022-11-01T11:37:34.100Z,147295.13
2022-11-01T11:40:24.400Z,147279.28
2022-11-01T11:42:54.283Z,147249.94
2022-11-01T11:45:27.945Z,147242.59
2022-11-01T11:47:57.112Z,147267.03
2022-11-01T11:50:27.611Z,147254.81
2022-11-01T11:53:07.671Z,147157.16
2022-11-01T11:55:47.588Z,147275.59
2022-11-01T11:58:20.307Z,147285.34
2022-11-01T12:00:48.714Z,147320.78
2022-11-01T12:03:17.375Z,147321.97
2022-11-01T12:05:53.632Z,147212.06
2022-11-01T12:08:49.662Z,147295.13
2022-11-01T12:11:17.842Z,147278.00
2022-11-01T12:13:59.203Z,147276.81
2022-11-01T12:19:01.110Z,147223.03
2022-11-01T12:21:41.109Z,147214.50
2022-11-01T12:24:20.277Z,147218.16
2022-11-01T12:26:49.053Z,147219.41
2022-11-01T12:29:29.025Z,147219.41
2022-11-01T12:32:01.292Z,147209.63
2022-11-01T12:34:38.347Z,147218.16
2022-11-01T12:37:19.207Z,147274.38
2022-11-01T12:40:15.268Z,147256.06
2022-11-01T12:42:50.440Z,147262.16
2022-11-01T12:45:50.026Z,147240.16
2022-11-01T12:48:28.105Z,147216.97
2022-11-01T12:51:00.143Z,147251.16
2022-11-01T12:53:34.246Z,147275.59
2022-11-01T12:56:01.364Z,147281.69
2022-11-01T12:58:33.496Z,147258.50
2022-11-01T13:01:41.886Z,147234.06
2022-11-01T13:04:23.414Z,147265.84
2022-11-01T13:07:28.817Z,147289.03
2022-11-01T13:10:10.328Z,147253.63
2022-11-01T13:13:04.416Z,147292.69
2022-11-01T13:15:41.090Z,147280.47
2022-11-01T13:18:19.376Z,147259.72
2022-11-01T13:21:07.185Z,147202.31
2022-11-01T13:23:53.796Z,147186.44
2022-11-01T13:26:24.273Z,147192.56
2022-11-01T13:29:34.382Z,147202.31
2022-11-01T13:32:10.629Z,147203.53
2022-11-01T13:34:56.627Z,147188.91
2022-11-01T13:37:47.061Z,147165.72
2022-11-01T13:40:32.296Z,147190.09
2022-11-01T13:43:09.782Z,147194.97
2022-11-01T13:45:42.813Z,147186.44
2022-11-01T13:48:15.962Z,147144.94
2022-11-01T13:50:56.136Z,147130.31
2022-11-01T13:53:39.211Z,147115.69
2022-11-01T13:56:12.917Z,147122.97
2022-11-01T13:58:40.369Z,147143.75
2022-11-01T14:01:35.414Z,147127.91
2022-11-01T14:04:08.655Z,147090.03
2022-11-01T14:06:37.783Z,147075.41
2022-11-01T14:09:23.487Z,147090.03
2022-11-01T14:11:53.455Z,147063.19
2022-11-01T14:14:29.597Z,147060.78
2022-11-01T14:17:26.885Z,147052.25
2022-11-01T14:19:56.776Z,147030.28
2022-11-01T14:22:27.181Z,147036.41
2022-11-01T14:25:02.848Z,146988.81
2022-11-01T14:27:35.474Z,146991.25
2022-11-01T14:30:12.165Z,146982.69
2022-11-01T14:32:39.381Z,146977.78
2022-11-01T14:35:12.674Z,146959.50
2022-11-01T14:37:47.820Z,146899.75
2022-11-01T14:40:46.977Z,146947.28
2022-11-01T14:43:22.951Z,146931.47
2022-11-01T14:45:59.309Z,146929.00
2022-11-01T14:48:44.656Z,146902.16
2022-11-01T14:51:30.018Z,146907.03
2022-11-01T14:54:04.353Z,146880.22
2022-11-01T14:56:39.790Z,146850.97
2022-11-01T14:59:20.683Z,146799.78
2022-11-01T15:01:50.320Z,146802.19
2022-11-01T15:04:25.538Z,146829.00
2022-11-01T15:06:52.699Z,146826.59
2022-11-01T15:09:22.879Z,146825.34
2022-11-01T15:11:53.076Z,146740.03
2022-11-01T15:14:27.116Z,146786.34
2022-11-01T15:16:54.297Z,146765.63
2022-11-01T15:19:27.857Z,146753.47
2022-11-01T15:22:01.008Z,146731.50
2022-11-01T15:24:28.298Z,146713.22
2022-11-01T15:26:55.407Z,146690.03
2022-11-01T15:29:24.763Z,146670.53
2022-11-01T15:31:58.050Z,146641.28
2022-11-01T15:34:27.922Z,146688.81
2022-11-01T15:36:55.519Z,146586.44
2022-11-01T15:39:29.264Z,146648.59
2022-11-01T15:41:57.400Z,146577.91
2022-11-01T15:44:26.803Z,146619.34
2022-11-01T15:46:58.461Z,146609.59
2022-11-01T15:49:28.659Z,146594.97
2022-11-01T15:52:05.058Z,146588.91
2022-11-01T15:54:47.382Z,146565.75
2022-11-01T15:57:21.143Z,146517.00
2022-11-01T15:59:54.591Z,146541.38
2022-11-01T16:02:37.813Z,146471.94
2022-11-01T16:05:05.661Z,146524.34
2022-11-01T16:07:34.285Z,146446.41
2022-11-01T16:10:04.956Z,146475.59
2022-11-01T16:12:36.158Z,146482.94
2022-11-01T16:15:08.085Z,146452.47
2022-11-01T16:17:38.579Z,146456.13
2022-11-01T16:20:27.470Z,146448.81
2022-11-01T16:22:55.864Z,146339.16
2022-11-01T16:25:25.598Z,146417.13
2022-11-01T16:27:54.626Z,146406.16
2022-11-01T16:30:40.266Z,146385.44
2022-11-01T16:33:19.578Z,146361.09
2022-11-01T16:35:51.514Z,146335.50
2022-11-01T16:38:33.499Z,146326.97
2022-11-01T16:41:02.907Z,146313.59
2022-11-01T16:43:35.307Z,146309.97
2022-11-01T16:46:04.867Z,146294.13
2022-11-01T16:48:35.737Z,146290.47
2022-11-01T16:51:03.664Z,146274.66
2022-11-01T16:53:31.144Z,146243.00
2022-11-01T16:56:34.985Z,146253.94
2022-11-01T16:58:58.325Z,146251.53
2022-11-01T17:01:34.184Z,146195.56
2022-11-01T17:04:02.977Z,146132.28
2022-11-01T17:06:34.598Z,146204.03
2022-11-01T17:09:12.558Z,146161.47
2022-11-01T17:11:40.362Z,146140.81
2022-11-01T17:14:07.443Z,146140.81
2022-11-01T17:16:34.699Z,146162.66
2022-11-01T17:19:02.330Z,146167.53
2022-11-01T17:21:32.274Z,146066.50
2022-11-01T17:23:59.346Z,146117.69
2022-11-01T17:26:26.865Z,146084.81
2022-11-01T17:28:55.079Z,146122.56
2022-11-01T17:31:22.477Z,146115.22
2022-11-01T17:33:49.525Z,146105.50
2022-11-01T17:36:17.494Z,146100.63
2022-11-01T17:38:45.445Z,146079.94
2022-11-01T17:41:18.112Z,146092.13
2022-11-01T17:43:45.250Z,146078.72
2022-11-01T17:46:21.313Z,146078.72
2022-11-01T17:48:48.310Z,146070.16
2022-11-01T17:51:17.068Z,146072.63
2022-11-01T17:53:44.399Z,146076.28
2022-11-01T17:56:11.547Z,146034.88
2022-11-01T17:58:38.815Z,146089.66
2022-11-01T18:01:07.944Z,146088.47
2022-11-01T18:03:35.071Z,146034.88
2022-11-01T18:06:02.057Z,146054.38
2022-11-01T18:08:33.373Z,146051.91
2022-11-01T18:11:23.297Z,146081.19
2022-11-01T18:13:53.171Z,146014.22
2022-11-01T18:16:27.395Z,146071.38
2022-11-01T18:19:05.563Z,146038.53
2022-11-01T18:21:48.850Z,146015.41
2022-11-01T18:24:22.893Z,146003.25
2022-11-01T18:26:51.317Z,146034.88
2022-11-01T18:29:23.830Z,146017.88
2022-11-01T18:32:05.803Z,146006.91
2022-11-01T18:34:56.026Z,145991.13
2022-11-01T18:37:36.949Z,145930.28
2022-11-01T18:40:19.076Z,145988.66
2022-11-01T18:42:47.470Z,145992.31
2022-11-01T18:45:19.489Z,145993.53
2022-11-01T18:47:53.680Z,145930.28
2022-11-01T18:50:26.115Z,145888.94
2022-11-01T18:53:19.819Z,145971.66
2022-11-01T18:55:50.114Z,145925.41
2022-11-01T18:58:24.371Z,145940.03
2022-11-01T19:01:02.597Z,145893.78
2022-11-01T19:03:29.886Z,145865.84
2022-11-01T19:06:10.675Z,145925.41
2022-11-01T19:08:38.767Z,145833.03
2022-11-01T19:11:05.891Z,145871.94
2022-11-01T19:13:34.649Z,145942.44
2022-11-01T19:16:02.025Z,145896.25
2022-11-01T19:18:29.842Z,145915.69
2022-11-01T19:20:58.838Z,145944.91
2022-11-01T19:23:38.211Z,145954.63
2022-11-01T19:26:30.633Z,145954.63
2022-11-01T19:28:58.766Z,145947.31
2022-11-01T19:31:38.681Z,145932.72
2022-11-01T19:34:10.836Z,145852.47
2022-11-01T19:36:41.216Z,145874.34
2022-11-01T19:39:23.486Z,145867.09
2022-11-01T19:41:53.121Z,145789.28
2022-11-01T19:44:24.187Z,145852.47
2022-11-01T19:47:16.164Z,145887.72
2022-11-01T19:49:43.541Z,145869.50
2022-11-01T19:52:10.662Z,145893.78
2022-11-01T19:54:41.121Z,145884.06
2022-11-01T19:57:32.397Z,145869.50
2022-11-01T20:00:18.865Z,145882.88
2022-11-01T20:02:48.648Z,145799.00
2022-11-01T20:05:36.495Z,145886.53
2022-11-01T20:08:15.958Z,145884.06
2022-11-01T20:10:42.963Z,145879.22
2022-11-01T20:13:10.004Z,145834.22
2022-11-01T20:15:37.183Z,145864.63
2022-11-01T20:18:04.545Z,145803.88
2022-11-01T20:20:32.503Z,145850.06
2022-11-01T20:23:12.969Z,145811.13
2022-11-01T20:25:46.525Z,145780.78
2022-11-01T20:28:13.534Z,145835.47
2022-11-01T20:30:40.595Z,145835.47
2022-11-01T20:33:07.713Z,145760.09
2022-11-01T20:35:34.749Z,145823.31
2022-11-01T20:38:01.764Z,145844.00
2022-11-01T20:40:28.783Z,145851.25
2022-11-01T20:42:56.776Z,145828.16
2022-11-01T20:45:23.789Z,145818.44
2022-11-01T20:47:51.214Z,145803.88
2022-11-01T20:50:19.042Z,145816.00
2022-11-01T20:52:46.307Z,145706.59
2022-11-01T20:55:13.430Z,145730.94
2022-11-01T20:57:40.806Z,145784.38
2022-11-01T21:00:17.940Z,145781.97
2022-11-01T21:02:48.338Z,145772.25
2022-11-01T21:05:22.764Z,145767.41
2022-11-01T21:07:54.768Z,145773.47
2022-11-01T21:10:27.068Z,145774.66
2022-11-01T21:12:54.260Z,145688.31
2022-11-01T21:15:38.911Z,145749.16
2022-11-01T21:18:12.048Z,145757.69
2022-11-01T21:20:41.469Z,145743.06
2022-11-01T21:23:26.389Z,145727.28
2022-11-01T21:25:57.853Z,145651.88
2022-11-01T21:28:34.145Z,145738.19
2022-11-01T21:31:09.971Z,145738.19
2022-11-01T21:33:39.380Z,145750.38
2022-11-01T21:36:18.424Z,145764.94
2022-11-01T21:38:59.982Z,145743.06
2022-11-01T21:41:45.143Z,145762.53
2022-11-01T21:44:18.064Z,145749.16
2022-11-01T21:46:50.796Z,145741.84
2022-11-01T21:49:24.161Z,145754.03
2022-11-01T21:51:52.033Z,145747.97
2022-11-01T21:54:19.089Z,145685.91
2022-11-01T21:56:46.453Z,145760.09
2022-11-01T21:59:13.772Z,145752.81
2022-11-01T22:01:46.131Z,145754.03
2022-11-01T22:04:14.897Z,145738.19
2022-11-01T22:06:42.813Z,145707.84
2022-11-01T22:09:10.799Z,145648.28
2022-11-01T22:11:37.888Z,145699.34
2022-11-01T22:14:05.524Z,145740.66
2022-11-01T22:16:32.796Z,145688.31
2022-11-01T22:19:00.481Z,145662.84
2022-11-01T22:21:27.527Z,145721.22
2022-11-01T22:23:59.655Z,145657.97
2022-11-01T22:26:26.984Z,145721.22
2022-11-01T22:28:54.188Z,145750.38
2022-11-01T22:31:21.479Z,145738.19
2022-11-01T22:33:52.887Z,145747.97
2022-11-01T22:36:28.119Z,145667.69
2022-11-01T22:38:57.040Z,145694.44
2022-11-01T22:41:34.145Z,145704.19
2022-11-01T22:44:09.909Z,145699.34
2022-11-01T22:46:44.502Z,145709.06
2022-11-01T22:49:28.627Z,145653.13
2022-11-01T22:51:59.324Z,145604.50
2022-11-01T22:54:32.771Z,145685.91
2022-11-01T22:57:10.296Z,145671.34
2022-11-01T22:59:42.405Z,145667.69
2022-11-01T23:02:25.692Z,145682.25
2022-11-01T23:05:08.193Z,145684.72
2022-11-01T23:07:42.516Z,145673.75
2022-11-01T23:10:29.676Z,145665.25
2022-11-01T23:13:39.156Z,145665.25
2022-11-01T23:16:22.073Z,145665.25
2022-11-01T23:18:49.449Z,145670.09
2022-11-01T23:21:17.111Z,145631.25
2022-11-01T23:23:45.741Z,145683.47
2022-11-01T23:26:15.070Z,145704.19
2022-11-01T23:28:48.436Z,145709.06
2022-11-01T23:31:16.634Z,145721.22
2022-11-01T23:33:48.756Z,145709.06
2022-11-01T23:36:20.377Z,145691.97
2022-11-01T23:38:55.388Z,145729.75
2022-11-01T23:41:27.384Z,145665.25
2022-11-01T23:43:58.100Z,145699.34
2022-11-01T23:46:28.234Z,145724.84
2022-11-01T23:49:03.268Z,145745.50
2022-11-01T23:51:31.282Z,145739.44
2022-11-01T23:53:58.763Z,145755.22
2022-11-01T23:56:25.915Z,145716.38
2022-11-01T23:59:01.970Z,145763.75
